createdAt,value
2022-09-30T00:01:12.965Z,8.00
2022-09-30T00:03:40.459Z,8.32
2022-09-30T00:06:09.131Z,8.77
2022-09-30T00:08:37.526Z,10.35
2022-09-30T00:11:06.615Z,11.27
2022-09-30T00:13:34.988Z,12.05
2022-09-30T00:16:02.504Z,11.05
2022-09-30T00:18:30.423Z,12.18
2022-09-30T00:20:57.735Z,11.98
2022-09-30T00:23:25.384Z,11.18
2022-09-30T00:25:52.811Z,9.32
2022-09-30T00:28:20.043Z,13.73
2022-09-30T00:30:48.324Z,14.82
2022-09-30T00:33:15.539Z,12.60
2022-09-30T00:35:42.820Z,12.88
2022-09-30T00:38:10.035Z,11.38
2022-09-30T00:40:39.351Z,13.10
2022-09-30T00:43:21.347Z,12.20
2022-09-30T00:45:57.399Z,9.82
2022-09-30T00:48:29.356Z,11.57
2022-09-30T00:50:56.840Z,11.52
2022-09-30T00:53:44.433Z,11.32
2022-09-30T00:56:14.100Z,10.73
2022-09-30T00:58:44.472Z,9.93
2022-09-30T01:01:11.882Z,9.30
2022-09-30T01:03:41.800Z,8.50
2022-09-30T01:06:09.441Z,8.55
2022-09-30T01:08:38.000Z,8.02
2022-09-30T01:11:08.168Z,7.50
2022-09-30T01:13:36.522Z,7.20
2022-09-30T01:16:12.326Z,6.75
2022-09-30T01:18:48.065Z,6.60
2022-09-30T01:21:15.277Z,6.15
2022-09-30T01:23:42.835Z,6.90
2022-09-30T01:26:20.653Z,6.63
2022-09-30T01:29:00.845Z,6.57
2022-09-30T01:31:40.427Z,6.70
2022-09-30T01:34:23.825Z,6.22
2022-09-30T01:37:23.294Z,6.35
2022-09-30T01:40:31.086Z,7.45
2022-09-30T01:43:00.935Z,6.93
2022-09-30T01:45:28.407Z,7.25
2022-09-30T01:48:17.415Z,13.82
2022-09-30T01:50:47.799Z,9.88
2022-09-30T01:53:33.904Z,8.40
2022-09-30T01:56:03.948Z,8.95
2022-09-30T01:58:36.752Z,8.73
2022-09-30T02:01:07.115Z,8.05
2022-09-30T02:03:34.455Z,7.03
2022-09-30T02:06:04.751Z,8.00
2022-09-30T02:08:36.371Z,11.82
2022-09-30T02:11:12.992Z,14.07
2022-09-30T02:13:46.520Z,9.32
2022-09-30T02:16:17.922Z,8.90
2022-09-30T02:18:54.131Z,7.93
2022-09-30T02:21:24.160Z,7.57
2022-09-30T02:23:54.556Z,8.80
2022-09-30T02:26:24.642Z,9.45
2022-09-30T02:28:58.354Z,9.43
2022-09-30T02:31:27.863Z,10.73
2022-09-30T02:33:57.734Z,9.70
2022-09-30T02:36:34.343Z,9.93
2022-09-30T02:39:07.338Z,9.95
2022-09-30T02:41:39.570Z,9.48
2022-09-30T02:44:07.285Z,9.10
2022-09-30T02:46:53.635Z,9.02
2022-09-30T02:49:29.548Z,10.05
2022-09-30T02:52:03.644Z,9.35
2022-09-30T02:54:30.877Z,7.93
2022-09-30T02:57:01.603Z,8.38
2022-09-30T02:59:28.912Z,9.60
2022-09-30T03:01:56.420Z,9.23
2022-09-30T03:04:26.031Z,8.43
2022-09-30T03:06:53.300Z,11.98
2022-09-30T03:09:25.168Z,8.70
2022-09-30T03:11:55.914Z,7.55
2022-09-30T03:14:29.206Z,8.95
2022-09-30T03:16:59.197Z,7.70
2022-09-30T03:19:26.947Z,7.32
2022-09-30T03:21:57.247Z,8.68
2022-09-30T03:24:51.308Z,7.35
2022-09-30T03:27:34.902Z,7.33
2022-09-30T03:30:07.959Z,8.45
2022-09-30T03:32:47.551Z,7.85
2022-09-30T03:35:17.598Z,7.95
2022-09-30T03:38:08.096Z,7.88
2022-09-30T03:40:42.274Z,11.38
2022-09-30T03:43:29.739Z,8.82
2022-09-30T03:46:07.020Z,10.07
2022-09-30T03:48:35.187Z,8.30
2022-09-30T03:51:02.646Z,9.55
2022-09-30T03:53:29.847Z,9.10
2022-09-30T03:55:57.178Z,10.48
2022-09-30T03:58:24.738Z,11.25
2022-09-30T04:00:57.238Z,11.30
2022-09-30T04:03:24.975Z,10.48
2022-09-30T04:05:52.202Z,9.07
2022-09-30T04:08:19.489Z,10.07
2022-09-30T04:10:46.940Z,7.90
2022-09-30T04:13:14.275Z,10.07
2022-09-30T04:15:41.743Z,8.18
2022-09-30T04:18:09.063Z,7.82
2022-09-30T04:20:36.414Z,11.30
2022-09-30T04:23:03.947Z,9.57
2022-09-30T04:25:31.280Z,9.25
2022-09-30T04:27:58.594Z,9.60
2022-09-30T04:30:30.142Z,8.60
2022-09-30T04:33:00.046Z,8.05
2022-09-30T04:35:30.342Z,11.25
2022-09-30T04:37:57.903Z,9.13
2022-09-30T04:40:25.586Z,10.45
2022-09-30T04:42:57.101Z,10.18
2022-09-30T04:45:25.290Z,10.88
2022-09-30T04:47:52.701Z,9.68
2022-09-30T04:50:20.127Z,12.45
2022-09-30T04:52:47.704Z,9.63
2022-09-30T04:55:15.060Z,11.90
2022-09-30T04:57:45.404Z,12.35
2022-09-30T05:00:12.946Z,11.15
2022-09-30T05:02:40.212Z,11.75
2022-09-30T05:05:07.792Z,9.27
2022-09-30T05:07:35.029Z,10.00
2022-09-30T05:10:02.273Z,14.07
2022-09-30T05:12:29.788Z,12.00
2022-09-30T05:14:57.107Z,9.43
2022-09-30T05:17:24.363Z,12.13
2022-09-30T05:19:51.723Z,10.05
2022-09-30T05:22:18.929Z,7.25
2022-09-30T05:24:46.173Z,6.82
2022-09-30T05:27:13.511Z,8.63
2022-09-30T05:29:40.776Z,7.30
2022-09-30T05:32:08.013Z,6.60
2022-09-30T05:34:35.267Z,6.95
2022-09-30T05:37:02.525Z,7.43
2022-09-30T05:39:29.943Z,6.88
2022-09-30T05:41:57.797Z,6.90
2022-09-30T05:44:25.035Z,7.78
2022-09-30T05:46:52.508Z,8.02
2022-09-30T05:49:19.780Z,8.82
2022-09-30T05:51:47.856Z,8.48
2022-09-30T05:54:15.126Z,7.93
2022-09-30T05:56:42.418Z,7.63
2022-09-30T05:59:09.900Z,7.75
2022-09-30T06:01:37.852Z,8.75
2022-09-30T06:04:05.151Z,8.48
2022-09-30T06:06:33.040Z,8.52
2022-09-30T06:09:00.388Z,7.90
2022-09-30T06:11:27.679Z,7.93
2022-09-30T06:13:54.941Z,8.07
2022-09-30T06:16:24.155Z,7.93
2022-09-30T06:18:51.439Z,8.00
2022-09-30T06:21:19.517Z,7.57
2022-09-30T06:23:46.815Z,6.85
2022-09-30T06:26:14.655Z,8.23
2022-09-30T06:28:42.394Z,7.78
2022-09-30T06:31:10.243Z,7.80
2022-09-30T06:33:37.674Z,9.38
2022-09-30T06:36:07.075Z,9.70
2022-09-30T06:38:37.221Z,10.38
2022-09-30T06:41:05.044Z,9.70
2022-09-30T06:43:44.599Z,13.07
2022-09-30T06:46:24.402Z,12.00
2022-09-30T06:49:10.511Z,12.10
2022-09-30T06:51:40.027Z,18.58
2022-09-30T06:54:09.227Z,15.70
2022-09-30T06:56:37.185Z,15.30
2022-09-30T06:59:04.747Z,12.32
2022-09-30T07:01:32.033Z,16.38
2022-09-30T07:03:59.254Z,12.43
2022-09-30T07:06:26.558Z,11.82
2022-09-30T07:08:54.332Z,11.40
2022-09-30T07:11:21.870Z,10.88
2022-09-30T07:13:49.428Z,13.45
2022-09-30T07:16:19.314Z,15.55
2022-09-30T07:18:46.955Z,14.57
2022-09-30T07:21:16.330Z,16.40
2022-09-30T07:23:48.405Z,14.95
2022-09-30T07:26:17.267Z,14.25
2022-09-30T07:28:45.270Z,13.73
2022-09-30T07:31:33.701Z,14.85
2022-09-30T07:34:02.423Z,13.48
2022-09-30T07:36:33.999Z,14.25
2022-09-30T07:39:06.549Z,15.55
2022-09-30T07:41:36.103Z,15.95
2022-09-30T07:44:04.074Z,16.55
2022-09-30T07:46:32.706Z,17.15
2022-09-30T07:49:02.218Z,16.33
2022-09-30T07:51:31.341Z,17.75
2022-09-30T07:54:00.314Z,21.90
2022-09-30T07:56:27.812Z,21.80
2022-09-30T07:58:56.245Z,19.08
2022-09-30T08:01:25.087Z,20.27
2022-09-30T08:03:56.450Z,19.27
2022-09-30T08:06:24.017Z,19.02
2022-09-30T08:08:52.099Z,21.17
2022-09-30T08:11:19.676Z,21.15
2022-09-30T08:13:51.597Z,20.77
2022-09-30T08:16:20.858Z,21.55
2022-09-30T08:18:48.163Z,21.73
2022-09-30T08:21:15.470Z,20.30
2022-09-30T08:23:42.744Z,18.92
2022-09-30T08:26:12.187Z,19.52
2022-09-30T08:28:40.227Z,17.63
2022-09-30T08:31:17.655Z,18.73
2022-09-30T08:33:45.255Z,17.73
2022-09-30T08:36:16.908Z,18.30
2022-09-30T08:38:44.489Z,18.33
2022-09-30T08:41:30.588Z,16.13
2022-09-30T08:44:07.157Z,17.90
2022-09-30T08:46:37.492Z,15.02
2022-09-30T08:49:23.849Z,15.35
2022-09-30T08:51:52.303Z,16.25
2022-09-30T08:54:21.948Z,16.90
2022-09-30T08:56:49.691Z,16.10
2022-09-30T08:59:49.413Z,16.30
2022-09-30T09:02:22.917Z,17.77
2022-09-30T09:04:52.326Z,17.73
2022-09-30T09:07:22.701Z,19.20
2022-09-30T09:09:52.979Z,20.15
2022-09-30T09:12:38.509Z,21.45
2022-09-30T09:15:24.513Z,20.90
2022-09-30T09:18:21.630Z,21.30
2022-09-30T09:20:48.371Z,19.42
2022-09-30T09:23:15.613Z,20.95
2022-09-30T09:25:46.248Z,18.45
2022-09-30T09:28:33.868Z,18.40
2022-09-30T09:31:03.527Z,18.05
2022-09-30T09:33:32.434Z,18.65
2022-09-30T09:35:59.715Z,17.65
2022-09-30T09:38:55.239Z,17.70
2022-09-30T09:41:34.858Z,17.73
2022-09-30T09:44:02.042Z,17.58
2022-09-30T09:46:41.030Z,16.30
2022-09-30T09:49:16.151Z,15.05
2022-09-30T09:51:47.330Z,16.13
2022-09-30T09:54:17.723Z,14.00
2022-09-30T09:56:45.087Z,14.50
2022-09-30T09:59:17.035Z,11.00
2022-09-30T10:04:16.265Z,11.30
2022-09-30T10:06:55.809Z,9.23
2022-09-30T10:09:23.077Z,8.63
2022-09-30T10:11:50.409Z,8.52
2022-09-30T10:14:21.820Z,8.43
2022-09-30T10:16:49.196Z,7.70
2022-09-30T10:19:23.746Z,6.47
2022-09-30T10:21:53.977Z,6.45
2022-09-30T10:24:22.724Z,6.47
2022-09-30T10:26:50.084Z,5.60
2022-09-30T10:29:32.062Z,5.38
2022-09-30T10:32:00.777Z,5.78
2022-09-30T10:34:30.705Z,5.88
2022-09-30T10:36:59.534Z,5.70
2022-09-30T10:39:28.621Z,4.90
2022-09-30T10:42:11.415Z,4.65
2022-09-30T10:44:54.314Z,3.97
2022-09-30T10:47:23.308Z,4.50
2022-09-30T10:50:07.879Z,5.72
2022-09-30T10:52:40.069Z,5.60
2022-09-30T10:55:14.710Z,6.45
2022-09-30T10:57:43.057Z,6.20
2022-09-30T11:00:19.638Z,5.65
2022-09-30T11:02:59.448Z,6.45
2022-09-30T11:05:31.756Z,5.82
2022-09-30T11:08:03.579Z,5.75
2022-09-30T11:10:33.883Z,6.00
2022-09-30T11:13:07.244Z,5.55
2022-09-30T11:15:37.571Z,6.18
2022-09-30T11:18:14.048Z,5.13
2022-09-30T11:20:46.414Z,5.53
2022-09-30T11:23:16.720Z,5.15
2022-09-30T11:25:46.557Z,5.45
2022-09-30T11:28:32.791Z,5.13
2022-09-30T11:31:08.831Z,4.72
2022-09-30T11:33:47.660Z,5.10
2022-09-30T11:36:14.992Z,5.53
2022-09-30T11:39:02.291Z,4.80
2022-09-30T11:41:48.628Z,6.07
2022-09-30T11:44:34.571Z,5.05
2022-09-30T11:47:07.847Z,5.13
2022-09-30T11:49:35.060Z,5.47
2022-09-30T11:52:20.882Z,4.47
2022-09-30T11:54:51.064Z,4.07
2022-09-30T11:57:33.173Z,4.57
2022-09-30T12:00:08.362Z,4.93
2022-09-30T12:02:38.180Z,3.97
2022-09-30T12:05:11.118Z,4.22
2022-09-30T12:07:44.374Z,4.07
2022-09-30T12:10:21.542Z,4.07
2022-09-30T12:12:50.828Z,3.88
2022-09-30T12:15:19.614Z,3.60
2022-09-30T12:17:49.466Z,3.92
2022-09-30T12:20:20.181Z,3.78
2022-09-30T12:22:47.762Z,3.47
2022-09-30T12:25:21.445Z,3.42
2022-09-30T12:27:56.054Z,3.75
2022-09-30T12:30:24.030Z,3.95
2022-09-30T12:32:51.272Z,4.32
2022-09-30T12:35:38.069Z,3.70
2022-09-30T12:38:25.975Z,4.60
2022-09-30T12:41:02.664Z,4.90
2022-09-30T12:43:45.385Z,5.68
2022-09-30T12:46:24.916Z,4.68
2022-09-30T12:48:55.743Z,3.20
2022-09-30T12:51:28.126Z,3.63
2022-09-30T12:53:59.210Z,3.75
2022-09-30T12:56:28.982Z,3.05
2022-09-30T12:58:58.035Z,3.70
2022-09-30T13:01:26.916Z,3.38
2022-09-30T13:04:11.461Z,3.33
2022-09-30T13:06:47.735Z,2.58
2022-09-30T13:09:18.012Z,3.08
2022-09-30T13:11:49.134Z,3.47
2022-09-30T13:14:33.019Z,3.45
2022-09-30T13:17:01.359Z,2.97
2022-09-30T13:19:48.284Z,8.60
2022-09-30T13:22:21.345Z,4.38
2022-09-30T13:24:57.986Z,3.10
2022-09-30T13:27:39.467Z,3.20
2022-09-30T13:30:15.838Z,2.97
2022-09-30T13:32:47.961Z,3.78
2022-09-30T13:35:33.788Z,3.08
2022-09-30T13:38:16.077Z,2.90
2022-09-30T13:41:07.257Z,2.90
2022-09-30T13:43:34.670Z,3.13
2022-09-30T13:46:07.117Z,3.15
2022-09-30T13:48:36.139Z,3.22
2022-09-30T13:51:08.099Z,3.35
2022-09-30T13:53:45.998Z,3.00
2022-09-30T13:56:20.744Z,2.88
2022-09-30T13:58:51.025Z,2.88
2022-09-30T14:01:21.614Z,2.83
2022-09-30T14:03:48.935Z,2.60
2022-09-30T14:06:35.940Z,2.90
2022-09-30T14:09:32.789Z,2.20
2022-09-30T14:12:12.404Z,2.58
2022-09-30T14:15:02.394Z,2.60
2022-09-30T14:17:32.688Z,2.55
2022-09-30T14:20:23.124Z,2.38
2022-09-30T14:22:50.415Z,1.83
2022-09-30T14:25:19.105Z,2.33
2022-09-30T14:27:53.346Z,2.40
2022-09-30T14:32:56.110Z,3.13
2022-09-30T14:35:25.228Z,3.05
2022-09-30T14:37:54.624Z,2.90
2022-09-30T14:40:27.688Z,3.05
2022-09-30T14:42:55.639Z,3.45
2022-09-30T14:45:28.393Z,2.67
2022-09-30T14:47:58.182Z,2.33
2022-09-30T14:50:27.460Z,1.48
2022-09-30T14:52:58.848Z,2.25
2022-09-30T14:55:27.064Z,1.85
2022-09-30T14:58:14.351Z,1.23
2022-09-30T15:00:41.751Z,1.25
2022-09-30T15:03:11.816Z,1.35
2022-09-30T15:05:39.267Z,1.27
2022-09-30T15:08:13.739Z,1.08
2022-09-30T15:10:47.512Z,1.25
2022-09-30T15:13:15.007Z,0.80
2022-09-30T15:15:42.408Z,1.17
2022-09-30T15:18:28.172Z,0.95
2022-09-30T15:20:56.759Z,1.10
2022-09-30T15:23:27.221Z,1.00
2022-09-30T15:25:55.454Z,1.10
2022-09-30T15:28:22.838Z,0.90
2022-09-30T15:30:53.788Z,1.00
2022-09-30T15:33:24.192Z,1.33
2022-09-30T15:35:55.165Z,1.30
2022-09-30T15:38:25.527Z,0.90
2022-09-30T15:41:00.916Z,1.20
2022-09-30T15:43:36.528Z,1.02
2022-09-30T15:46:17.361Z,1.17
2022-09-30T15:48:45.036Z,1.33
2022-09-30T15:51:42.445Z,1.15
2022-09-30T15:54:15.759Z,1.40
2022-09-30T15:56:43.588Z,1.30
2022-09-30T15:59:14.912Z,1.25
2022-09-30T16:01:44.613Z,1.10
2022-09-30T16:04:18.015Z,1.20
2022-09-30T16:06:47.962Z,1.10
2022-09-30T16:09:18.607Z,1.50
2022-09-30T16:11:48.758Z,1.30
2022-09-30T16:14:23.719Z,2.30
2022-09-30T16:16:54.768Z,2.40
2022-09-30T16:19:24.494Z,2.35
2022-09-30T16:21:52.650Z,2.15
2022-09-30T16:24:22.991Z,2.53
2022-09-30T16:26:50.780Z,2.88
2022-09-30T16:29:18.317Z,3.53
2022-09-30T16:31:46.780Z,3.13
2022-09-30T16:34:22.766Z,3.00
2022-09-30T16:36:50.738Z,2.97
2022-09-30T16:39:18.120Z,3.20
2022-09-30T16:41:45.585Z,3.47
2022-09-30T16:44:13.069Z,2.80
2022-09-30T16:46:40.468Z,3.50
2022-09-30T16:49:15.792Z,3.10
2022-09-30T16:51:43.257Z,3.80
2022-09-30T16:54:10.855Z,2.90
2022-09-30T16:56:38.376Z,2.60
2022-09-30T16:59:08.011Z,3.25
2022-09-30T17:01:35.642Z,3.67
2022-09-30T17:04:03.741Z,3.28
2022-09-30T17:06:32.660Z,3.80
2022-09-30T17:09:02.285Z,4.00
2022-09-30T17:11:31.319Z,4.30
2022-09-30T17:13:59.543Z,3.97
2022-09-30T17:16:27.426Z,4.30
2022-09-30T17:18:54.871Z,3.95
2022-09-30T17:21:23.108Z,3.55
2022-09-30T17:23:50.790Z,4.40
2022-09-30T17:26:18.210Z,4.43
2022-09-30T17:28:46.348Z,4.32
2022-09-30T17:31:13.708Z,4.25
2022-09-30T17:33:41.892Z,4.53
2022-09-30T17:36:10.443Z,4.85
2022-09-30T17:38:38.520Z,4.82
2022-09-30T17:41:25.512Z,4.90
2022-09-30T17:43:52.838Z,4.47
2022-09-30T17:46:23.837Z,4.80
2022-09-30T17:48:55.257Z,5.25
2022-09-30T17:51:22.494Z,5.13
2022-09-30T17:53:49.799Z,5.40
2022-09-30T17:56:19.623Z,5.10
2022-09-30T17:58:48.997Z,4.95
2022-09-30T18:01:17.154Z,5.10
2022-09-30T18:03:45.999Z,5.63
2022-09-30T18:06:14.668Z,5.18
2022-09-30T18:08:42.779Z,5.78
2022-09-30T18:11:10.085Z,4.70
2022-09-30T18:13:37.369Z,4.90
2022-09-30T18:16:08.160Z,5.38
2022-09-30T18:18:36.161Z,4.80
2022-09-30T18:21:03.423Z,5.00
2022-09-30T18:23:30.777Z,4.68
2022-09-30T18:25:58.576Z,4.90
2022-09-30T18:28:26.563Z,5.18
2022-09-30T18:30:53.811Z,6.40
2022-09-30T18:33:22.073Z,6.28
2022-09-30T18:35:49.582Z,6.88
2022-09-30T18:38:17.052Z,7.32
2022-09-30T18:40:45.855Z,7.30
2022-09-30T18:43:14.411Z,6.32
2022-09-30T18:45:43.802Z,5.10
2022-09-30T18:48:11.859Z,5.25
2022-09-30T18:50:39.700Z,5.40
2022-09-30T18:53:10.181Z,4.75
2022-09-30T18:55:43.906Z,5.15
2022-09-30T18:58:11.357Z,4.97
2022-09-30T19:00:38.974Z,5.43
2022-09-30T19:03:06.461Z,5.65
2022-09-30T19:05:33.837Z,5.55
2022-09-30T19:08:01.231Z,5.65
2022-09-30T19:10:29.428Z,5.95
2022-09-30T19:12:56.824Z,6.35
2022-09-30T19:15:24.101Z,5.85
2022-09-30T19:17:53.139Z,6.60
2022-09-30T19:20:20.562Z,6.22
2022-09-30T19:22:48.534Z,7.57
2022-09-30T19:25:16.684Z,8.52
2022-09-30T19:27:44.815Z,9.30
2022-09-30T19:30:12.957Z,10.57
2022-09-30T19:32:40.673Z,9.65
2022-09-30T19:35:17.266Z,8.80
2022-09-30T19:37:59.748Z,9.10
2022-09-30T19:43:01.915Z,8.95
2022-09-30T19:45:29.408Z,9.60
2022-09-30T19:47:57.527Z,9.05
2022-09-30T19:50:25.104Z,8.43
2022-09-30T19:52:57.397Z,8.85
2022-09-30T19:55:25.773Z,9.05
2022-09-30T19:57:53.091Z,7.65
2022-09-30T20:00:20.675Z,8.63
2022-09-30T20:02:47.914Z,9.18
2022-09-30T20:05:15.177Z,8.57
2022-09-30T20:07:42.459Z,6.93
2022-09-30T20:10:09.843Z,7.68
2022-09-30T20:12:37.142Z,8.43
2022-09-30T20:15:23.030Z,7.70
2022-09-30T20:17:50.459Z,7.50
2022-09-30T20:20:36.562Z,7.90
2022-09-30T20:23:03.834Z,8.90
2022-09-30T20:25:32.259Z,7.03
2022-09-30T20:27:59.662Z,6.47
2022-09-30T20:30:29.925Z,6.55
2022-09-30T20:32:57.259Z,6.38
2022-09-30T20:35:25.019Z,5.93
2022-09-30T20:37:54.041Z,6.50
2022-09-30T20:40:21.503Z,6.00
2022-09-30T20:42:48.836Z,5.80
2022-09-30T20:45:18.146Z,5.95
2022-09-30T20:47:47.138Z,6.50
2022-09-30T20:50:14.505Z,7.57
2022-09-30T20:52:41.737Z,7.57
2022-09-30T20:55:09.537Z,7.32
2022-09-30T20:57:36.895Z,6.97
2022-09-30T21:00:04.685Z,7.15
2022-09-30T21:02:31.941Z,6.70
2022-09-30T21:04:59.754Z,7.03
2022-09-30T21:07:27.459Z,6.93
2022-09-30T21:09:54.958Z,6.40
2022-09-30T21:12:22.732Z,17.00
2022-09-30T21:14:50.120Z,7.85
2022-09-30T21:17:17.364Z,8.27
2022-09-30T21:19:44.611Z,13.00
2022-09-30T21:22:11.829Z,7.30
2022-09-30T21:24:39.098Z,7.30
2022-09-30T21:27:06.823Z,6.80
2022-09-30T21:29:34.437Z,6.60
2022-09-30T21:32:01.925Z,6.68
2022-09-30T21:34:29.195Z,6.72
2022-09-30T21:36:56.448Z,7.70
2022-09-30T21:39:24.032Z,7.03
2022-09-30T21:41:51.297Z,7.30
2022-09-30T21:44:18.556Z,8.35
2022-09-30T21:46:48.680Z,7.95
2022-09-30T21:49:20.876Z,7.88
2022-09-30T21:51:48.160Z,8.02
2022-09-30T21:54:15.941Z,7.88
2022-09-30T21:56:43.692Z,7.13
2022-09-30T21:59:11.400Z,7.45
2022-09-30T22:01:38.858Z,7.50
2022-09-30T22:04:06.446Z,7.75
2022-09-30T22:06:33.688Z,7.57
2022-09-30T22:09:01.696Z,7.40
2022-09-30T22:11:30.727Z,7.22
2022-09-30T22:13:58.667Z,7.00
2022-09-30T22:16:27.353Z,7.57
2022-09-30T22:18:55.183Z,7.15
2022-09-30T22:21:22.859Z,7.80
2022-09-30T22:23:50.493Z,7.38
2022-09-30T22:26:19.041Z,7.85
2022-09-30T22:28:47.126Z,8.00
2022-09-30T22:31:16.515Z,7.85
2022-09-30T22:34:02.561Z,7.03
2022-09-30T22:36:48.575Z,8.23
2022-09-30T22:39:15.909Z,7.40
2022-09-30T22:41:43.126Z,7.55
2022-09-30T22:44:10.406Z,7.97
2022-09-30T22:46:38.836Z,8.88
2022-09-30T22:49:07.096Z,9.25
2022-09-30T22:51:34.548Z,8.25
2022-09-30T22:54:03.460Z,8.07
2022-09-30T22:56:33.568Z,8.80
2022-09-30T22:59:00.992Z,9.23
2022-09-30T23:01:32.188Z,9.73
2022-09-30T23:03:59.767Z,10.13
2022-09-30T23:06:27.091Z,10.70
2022-09-30T23:08:54.491Z,10.63
2022-09-30T23:11:23.362Z,9.73
2022-09-30T23:13:54.435Z,9.55
2022-09-30T23:16:24.145Z,10.33
2022-09-30T23:18:51.408Z,9.75
2022-09-30T23:21:19.288Z,11.00
2022-09-30T23:23:46.877Z,11.25
2022-09-30T23:26:17.187Z,11.70
2022-09-30T23:28:44.958Z,11.80
2022-09-30T23:31:13.807Z,12.00
2022-09-30T23:33:46.946Z,12.13
2022-09-30T23:36:15.334Z,13.90
2022-09-30T23:38:42.731Z,14.93
2022-09-30T23:41:10.095Z,14.50
2022-09-30T23:43:37.667Z,13.73
2022-09-30T23:46:08.856Z,15.57
2022-09-30T23:48:38.161Z,14.13
2022-09-30T23:51:06.144Z,15.68
2022-09-30T23:53:33.816Z,15.38
2022-09-30T23:56:06.351Z,15.43
2022-09-30T23:58:34.516Z,15.63
